TimeEST,TemperatureF,Dew PointF,Humidity,Sea Level PressureIn,VisibilityMPH,Wind Direction,Wind SpeedMPH,Gust SpeedMPH,PrecipitationIn,Events,Conditions,WindDirDegrees,DateUTC
12:15 AM,1.4,-16.6,43,30.27,10.0,NW,6.9,-,N/A,,Clear,320,2013-01-25 05:15:00
12:35 AM,1.4,-14.8,47,30.27,10.0,NW,5.8,-,N/A,,Clear,310,2013-01-25 05:35:00
12:55 AM,1.4,-16.6,43,30.27,10.0,NW,5.8,-,N/A,,Clear,310,2013-01-25 05:55:00
1:15 AM,1.4,-14.8,47,30.27,10.0,NW,4.6,-,N/A,,Clear,320,2013-01-25 06:15:00
1:35 AM,1.4,-16.6,43,30.28,10.0,NW,4.6,-,N/A,,Clear,310,2013-01-25 06:35:00
1:55 AM,1.4,-14.8,47,30.29,10.0,NW,5.8,-,N/A,,Clear,310,2013-01-25 06:55:00
2:15 AM,1.4,-14.8,47,30.30,10.0,NW,6.9,-,N/A,,Clear,320,2013-01-25 07:15:00
2:35 AM,1.4,-14.8,47,30.29,10.0,NW,6.9,-,N/A,,Clear,320,2013-01-25 07:35:00
2:55 AM,1.4,-14.8,47,30.28,10.0,NW,6.9,-,N/A,,Clear,320,2013-01-25 07:55:00
3:15 AM,1.4,-14.8,47,30.28,10.0,NNW,4.6,-,N/A,,Clear,330,2013-01-25 08:15:00
3:35 AM,-0.4,-14.8,51,30.28,10.0,NNW,3.5,-,N/A,,Clear,340,2013-01-25 08:35:00
3:56 AM,-0.4,-14.8,51,30.29,10.0,NW,4.6,-,N/A,,Clear,310,2013-01-25 08:56:00
4:15 AM,-0.4,-9.4,66,30.29,10.0,NW,4.6,-,N/A,,Clear,310,2013-01-25 09:15:00
4:35 AM,-0.4,-9.4,66,30.29,10.0,Calm,Calm,-,N/A,,Clear,0,2013-01-25 09:35:00
4:55 AM,-0.4,-18.4,43,30.28,10.0,NNW,4.6,-,N/A,,Clear,330,2013-01-25 09:55:00
5:15 AM,-0.4,-9999,N/A,30.28,10.0,WNW,3.5,-,N/A,,Clear,290,2013-01-25 10:15:00
5:35 AM,-2.2,-9999,N/A,30.29,10.0,NW,4.6,-,N/A,,Clear,320,2013-01-25 10:35:00
5:55 AM,-2.2,-27.4,29,30.30,10.0,NNW,3.5,-,N/A,,Clear,330,2013-01-25 10:55:00
6:15 AM,-2.2,-23.8,35,30.30,10.0,NNW,3.5,-,N/A,,Clear,340,2013-01-25 11:15:00
6:35 AM,-2.2,-20.2,42,30.31,10.0,Calm,Calm,-,N/A,,Clear,0,2013-01-25 11:35:00
6:55 AM,-2.2,-18.4,46,30.31,10.0,North,3.5,-,N/A,,Clear,350,2013-01-25 11:55:00
7:15 AM,-2.2,-16.6,50,30.31,10.0,North,3.5,-,N/A,,Clear,360,2013-01-25 12:15:00
7:35 AM,-2.2,-14.8,55,30.31,10.0,North,4.6,-,N/A,,Clear,360,2013-01-25 12:35:00
7:55 AM,-2.2,-11.2,66,30.32,10.0,Calm,Calm,-,N/A,,Clear,0,2013-01-25 12:55:00
8:35 AM,-2.2,-11.2,66,30.32,10.0,Calm,Calm,-,N/A,,Clear,0,2013-01-25 13:35:00
8:55 AM,-0.4,-9.4,66,30.33,10.0,Calm,Calm,-,N/A,,Clear,0,2013-01-25 13:55:00
9:15 AM,-0.4,-11.2,60,30.32,10.0,Calm,Calm,-,N/A,,Clear,0,2013-01-25 14:15:00
9:35 AM,-0.4,-7.6,72,30.31,10.0,Calm,Calm,-,N/A,,Clear,0,2013-01-25 14:35:00
9:55 AM,1.4,-11.2,56,30.32,10.0,West,3.5,-,N/A,,Clear,270,2013-01-25 14:55:00
10:15 AM,1.4,-11.2,56,30.31,10.0,Calm,Calm,-,N/A,,Clear,0,2013-01-25 15:15:00
10:35 AM,3.2,-9.4,56,30.30,10.0,NNE,4.6,-,N/A,,Clear,20,2013-01-25 15:35:00
10:55 AM,3.2,-9.4,56,30.29,10.0,North,5.8,-,N/A,,Clear,350,2013-01-25 15:55:00
11:15 AM,3.2,-9.4,56,30.28,10.0,NNE,5.8,-,N/A,,Clear,30,2013-01-25 16:15:00
11:35 AM,3.2,-5.8,66,30.26,10.0,North,6.9,-,N/A,,Clear,10,2013-01-25 16:35:00
11:55 AM,5.0,-5.8,61,30.25,10.0,North,4.6,-,N/A,,Clear,360,2013-01-25 16:55:00
12:15 PM,6.8,-9.4,48,30.24,10.0,NNE,5.8,-,N/A,,Clear,20,2013-01-25 17:15:00
12:35 PM,6.8,-7.6,52,30.23,10.0,NNE,5.8,-,N/A,,Clear,20,2013-01-25 17:35:00
12:55 PM,8.6,-9.4,44,30.21,10.0,North,4.6,-,N/A,,Clear,10,2013-01-25 17:55:00
1:15 PM,8.6,-11.2,40,30.20,10.0,West,4.6,-,N/A,,Clear,270,2013-01-25 18:15:00
1:35 PM,8.6,-14.8,34,30.18,10.0,ENE,4.6,-,N/A,,Clear,70,2013-01-25 18:35:00
2:15 PM,10.4,-11.2,37,30.17,10.0,NNE,4.6,-,N/A,,Clear,30,2013-01-25 19:15:00
2:35 PM,10.4,-11.2,37,30.16,10.0,NNE,4.6,-,N/A,,Clear,20,2013-01-25 19:35:00
2:55 PM,10.4,-9.4,41,30.15,10.0,NNE,4.6,-,N/A,,Clear,20,2013-01-25 19:55:00
3:15 PM,10.4,-11.2,37,30.16,10.0,Calm,Calm,-,N/A,,Clear,0,2013-01-25 20:15:00
3:35 PM,10.4,-9.4,41,30.15,10.0,North,4.6,-,N/A,,Clear,10,2013-01-25 20:35:00
3:55 PM,10.4,-11.2,37,30.15,10.0,North,4.6,-,N/A,,Scattered Clouds,360,2013-01-25 20:55:00
4:15 PM,10.4,-11.2,37,30.15,10.0,NW,4.6,-,N/A,,Mostly Cloudy,320,2013-01-25 21:15:00
4:35 PM,10.4,-11.2,37,30.15,10.0,NNE,5.8,-,N/A,,Mostly Cloudy,20,2013-01-25 21:35:00
4:55 PM,10.4,-9.4,41,30.14,10.0,North,5.8,-,N/A,,Overcast,10,2013-01-25 21:55:00
5:15 PM,10.4,-9.4,41,30.12,10.0,North,4.6,-,N/A,,Overcast,10,2013-01-25 22:15:00
5:35 PM,10.4,-9.4,41,30.11,10.0,Calm,Calm,-,N/A,,Overcast,0,2013-01-25 22:35:00
5:55 PM,10.4,-9.4,41,30.11,10.0,Calm,Calm,-,N/A,,Overcast,0,2013-01-25 22:55:00
6:35 PM,10.4,-9.4,41,30.10,10.0,SSW,3.5,-,N/A,,Overcast,200,2013-01-25 23:35:00
6:55 PM,10.4,-9.4,41,30.08,10.0,Calm,Calm,-,N/A,,Overcast,0,2013-01-25 23:55:00
7:15 PM,10.4,-11.2,37,30.08,10.0,Calm,Calm,-,N/A,,Overcast,0,2013-01-26 00:15:00
7:35 PM,10.4,-11.2,37,30.07,10.0,Calm,Calm,-,N/A,,Overcast,0,2013-01-26 00:35:00
8:35 PM,10.4,-5.8,48,30.07,10.0,Calm,Calm,-,N/A,,Overcast,0,2013-01-26 01:35:00
8:55 PM,10.4,-4.0,52,30.07,10.0,North,3.5,-,N/A,,Overcast,10,2013-01-26 01:55:00
9:15 PM,10.4,-9999,N/A,30.06,8.0,North,4.6,-,N/A,,Overcast,10,2013-01-26 02:15:00
9:35 PM,10.4,-23.8,20,30.06,7.0,North,3.5,-,N/A,,Overcast,360,2013-01-26 02:35:00
9:55 PM,8.6,-0.4,67,30.05,4.0,NNW,4.6,-,N/A,,Overcast,340,2013-01-26 02:55:00
10:15 PM,8.6,1.4,73,30.04,3.0,North,4.6,-,N/A,,Overcast,360,2013-01-26 03:15:00
10:55 PM,8.6,3.2,79,30.04,5.0,Calm,Calm,-,N/A,,Overcast,0,2013-01-26 03:55:00
11:15 PM,8.6,3.2,79,30.05,5.0,WNW,3.5,-,N/A,,Overcast,300,2013-01-26 04:15:00
11:35 PM,8.6,8.6,100,30.05,3.0,WNW,3.5,-,N/A,,Overcast,300,2013-01-26 04:35:00
11:55 PM,8.6,5.0,85,30.03,3.0,North,4.6,-,N/A,,Overcast,350,2013-01-26 04:55:00